Flight Track Log - Related Links

Times and Time Zones

All times are in EDT time to prevent confusion due to time zone crossing. See the SWA1046 flight status page for this flight to view local times or setup timezone preferences in your user account.

Time Position Orientation Groundspeed Altitude Reporting Facility
EDT Latitude Longitude Course Direction KTS MPH feet Rate Location/Type
Wed 02:07:34 PM 38.7333 -90.3333 129° Southeast 160 184 1,800  Level Gateway (St. Louis) TRACON
Wed 02:08:24 PM 38.7025 -90.2844 129° Southeast 247 284 4,000 3,107 Climbing Kansas City Center
Wed 02:09:26 PM 38.6322 -90.2639 167° South 253 291 7,600 3,726 Climbing Kansas City Center
Wed 02:10:28 PM 38.5681 -90.2906 198° South 262 302 11,700 3,387 Climbing Kansas City Center
Wed 02:11:30 PM 38.5056 -90.3875 231° Southwest 322 371 14,600 2,952 Climbing Kansas City Center
Wed 02:12:32 PM 38.4461 -90.4808 231° Southwest 350 403 17,800 3,194 Climbing Kansas City Center
Wed 02:13:34 PM 38.3722 -90.5933 230° Southwest 380 437 21,200 3,097 Climbing Kansas City Center
Wed 02:14:36 PM 38.3014 -90.7028 231° Southwest 398 458 24,200 2,710 Climbing Kansas City Center
Wed 02:15:38 PM 38.2275 -90.8164 230° Southwest 415 478 26,800 2,468 Climbing Kansas City Center
Wed 02:16:40 PM 38.1369 -90.9567 231° Southwest 430 495 29,300 2,177 Climbing Kansas City Center
Wed 02:17:42 PM 38.0628 -91.0692 230° Southwest 436 502 31,300 2,274 Climbing Kansas City Center
Wed 02:18:44 PM 37.9853 -91.1892 231° Southwest 436 502 34,000 2,226 Climbing Kansas City Center
Wed 02:19:46 PM 37.9106 -91.3031 230° Southwest 423 487 35,900 2,081 Climbing Kansas City Center
Wed 02:20:48 PM 37.8197 -91.4403 230° Southwest 421 484 38,300 1,645 Climbing Kansas City Center
Wed 02:21:50 PM 37.7472 -91.5508 230° Southwest 410 472 39,300 823 Climbing Kansas City Center
Wed 02:22:52 PM 37.6717 -91.6656 230° Southwest 417 480 40,000 339 Climbing Kansas City Center
Wed 02:23:54 PM 37.5950 -91.7786 229° Southwest 419 482 40,000  Level Kansas City Center
Wed 02:24:56 PM 37.5111 -91.8797 224° Southwest 421 484 40,000  Level Kansas City Center
Wed 02:25:58 PM 37.4247 -91.9814 223° Southwest 422 486 40,000  Level Kansas City Center
Wed 02:27:00 PM 37.3392 -92.0811 223° Southwest 420 483 40,000  Level Kansas City Center
Wed 02:28:02 PM 37.2528 -92.1842 224° Southwest 423 487 40,000  Level Kansas City Center
Wed 02:29:05 PM 37.1481 -92.3042 222° Southwest 421 484 40,000  Level Kansas City Center
Wed 02:30:07 PM 37.0606 -92.4056 223° Southwest 425 489 40,000  Level Kansas City Center
Wed 02:31:09 PM 36.9731 -92.5056 222° Southwest 425 489 40,000  Level Kansas City Center
Wed 02:32:11 PM 36.8853 -92.6078 223° Southwest 428 493 40,000  Level Kansas City Center
Wed 02:32:33 PM 36.8419 -92.6539 220° Southwest 430 495 40,000  Level Memphis Center
Wed 02:33:33 PM 36.7547 -92.7550 223° Southwest 430 495 40,000  Level Memphis Center
Wed 02:34:33 PM 36.6672 -92.8558 223° Southwest 430 495 40,000  Level Memphis Center
Wed 02:35:33 PM 36.5778 -92.9511 221° Southwest 430 495 40,000  Level Memphis Center
Wed 02:36:33 PM 36.4883 -93.0492 221° Southwest 425 489 40,000  Level Memphis Center
Wed 02:37:33 PM 36.3925 -93.1414 218° Southwest 432 497 40,000  Level Memphis Center
Wed 02:38:33 PM 36.3006 -93.2411 221° Southwest 438 504 40,000  Level Memphis Center
Wed 02:39:33 PM 36.2106 -93.3356 220° Southwest 438 504 40,000  Level Memphis Center
Wed 02:40:33 PM 36.1228 -93.4328 222° Southwest 428 493 40,000  Level Memphis Center
Wed 02:41:33 PM 36.0328 -93.5319 222° Southwest 428 493 40,000  Level Memphis Center
Wed 02:42:33 PM 35.9364 -93.6308 220° Southwest 434 499 40,000  Level Memphis Center
Wed 02:43:33 PM 35.8486 -93.7222 220° Southwest 434 499 40,000  Level Memphis Center
Wed 02:44:33 PM 35.7519 -93.8206 220° Southwest 439 505 40,000  Level Memphis Center
Wed 02:45:33 PM 35.6636 -93.9192 222° Southwest 439 505 40,000  Level Memphis Center
Wed 02:46:33 PM 35.5733 -94.0147 221° Southwest 439 505 40,000  Level Memphis Center
Wed 02:47:33 PM 35.4808 -94.1100 220° Southwest 439 505 40,000  Level Memphis Center
Wed 02:48:33 PM 35.3881 -94.2078 221° Southwest 439 505 40,000  Level Memphis Center
Wed 02:49:33 PM 35.2997 -94.2978 220° Southwest 439 505 40,000  Level Memphis Center
Wed 02:50:33 PM 35.2069 -94.3950 221° Southwest 439 505 40,000  Level Memphis Center
Wed 02:51:33 PM 35.1142 -94.4897 220° Southwest 439 505 40,000  Level Memphis Center
Wed 02:52:18 PM 35.0444 -94.5631 221° Southwest 441 507 40,000  Level Fort Worth Center
Wed 02:53:18 PM 34.9628 -94.6444 219° Southwest 428 493 40,000  Level Fort Worth Center
Wed 02:54:18 PM 34.8608 -94.7514 221° Southwest 428 493 40,000  Level Fort Worth Center
Wed 02:55:18 PM 34.7750 -94.8428 221° Southwest 436 502 40,000  Level Fort Worth Center
Wed 02:56:18 PM 34.6808 -94.9339 219° Southwest 442 509 40,000  Level Fort Worth Center
Wed 02:57:18 PM 34.5847 -95.0300 219° Southwest 442 509 40,000  Level Fort Worth Center
Wed 02:58:18 PM 34.4819 -95.1108 213° Southwest 442 509 40,000 -100 Level Fort Worth Center
Wed 02:59:18 PM 34.3708 -95.1919 211° Southwest 453 521 39,800 -1,150 Descending Fort Worth Center
Wed 03:00:18 PM 34.2764 -95.2847 219° Southwest 458 527 37,700 -2,550 Descending Fort Worth Center
Wed 03:01:18 PM 34.1842 -95.3850 222° Southwest 453 521 34,700 -3,100 Descending Fort Worth Center
Wed 03:02:18 PM 34.0856 -95.4875 221° Southwest 458 527 31,500 -2,950 Descending Fort Worth Center
Wed 03:03:18 PM 33.9931 -95.5822 220° Southwest 458 527 28,800 -2,650 Descending Fort Worth Center
Wed 03:04:18 PM 33.9006 -95.6767 220° Southwest 448 516 26,200 -2,450 Descending Fort Worth Center
Wed 03:05:18 PM 33.8142 -95.7661 221° Southwest 435 501 23,900 -2,350 Descending Fort Worth Center
Wed 03:06:18 PM 33.7358 -95.8525 223° Southwest 415 478 21,500 -2,450 Descending Fort Worth Center
Wed 03:07:18 PM 33.6472 -95.9414 220° Southwest 406 467 19,000 -2,500 Descending Fort Worth Center
Wed 03:08:18 PM 33.5606 -96.0300 220° Southwest 395 455 16,500 -2,450 Descending Fort Worth Center
Wed 03:09:18 PM 33.4861 -96.1058 220° Southwest 390 449 14,100 -2,600 Descending Fort Worth Center
Wed 03:10:18 PM 33.4017 -96.1942 221° Southwest 385 443 11,300 -1,850 Descending Fort Worth Center
Wed 03:11:18 PM 33.3353 -96.2622 221° Southwest 367 422 10,400 -1,100 Descending Fort Worth Center
Wed 03:12:18 PM 33.2650 -96.3353 221° Southwest 325 374 9,100 -1,300 Descending Fort Worth Center
Wed 03:13:18 PM 33.2178 -96.4078 232° Southwest 308 354 7,800 -1,400 Descending Fort Worth Center
Wed 03:14:18 PM 33.1661 -96.4903 233° Southwest 297 342 6,300 -1,350 Descending Fort Worth Center
Wed 03:15:18 PM 33.1269 -96.5553 234° Southwest 283 326 5,100 -1,100 Descending Fort Worth Center
Wed 03:16:18 PM 33.0836 -96.6275 234° Southwest 273 314 4,100 -733 Descending Fort Worth Center
Wed 03:16:48 PM 33.0500 -96.6667 224° Southwest 274 315 4,000 -71 Descending Dallas / Fort Worth TRACON
Wed 03:17:42 PM 33.0167 -96.7333 239° Southwest 235 270 4,000  Level Dallas / Fort Worth TRACON
Wed 03:18:42 PM 33.0000 -96.8000 253° West 232 267 4,000 -333 Level Dallas / Fort Worth TRACON
Wed 03:19:48 PM 32.9667 -96.8667 239° Southwest 196 226 3,300 -714 Descending Dallas / Fort Worth TRACON
Wed 03:20:48 PM 32.9500 -96.9333 253° West 188 216 2,500 -737 Descending Dallas / Fort Worth TRACON
Wed 03:21:42 PM 32.9000 -96.9167 164° South 159 183 1,900 -737 Descending Dallas / Fort Worth TRACON
Wed 03:22:42 PM 32.8833 -96.8833 121° Southeast 140 161 1,100 -800 Descending Dallas / Fort Worth TRACON

Login

Don't have an account? Register now (free) for customized features, flight alerts, and more!